sensor_id;sensor_type;location;lat;lon;timestamp;P1;durP1;ratioP1;P2;durP2;ratioP2
1416;SDS011;703;51.162;13.574;2023-01-31T00:01:14;51.27;;;10.67;;
1416;SDS011;703;51.162;13.574;2023-01-31T00:03:42;48.80;;;11.27;;
1416;SDS011;703;51.162;13.574;2023-01-31T00:06:18;71.97;;;17.80;;
1416;SDS011;703;51.162;13.574;2023-01-31T00:08:48;48.53;;;9.70;;
1416;SDS011;703;51.162;13.574;2023-01-31T01:36:30;48.17;;;9.90;;
1416;SDS011;703;51.162;13.574;2023-01-31T01:38:57;48.93;;;10.60;;
1416;SDS011;703;51.162;13.574;2023-01-31T01:41:23;46.70;;;9.70;;
1416;SDS011;703;51.162;13.574;2023-01-31T01:46:17;50.70;;;9.60;;
1416;SDS011;703;51.162;13.574;2023-01-31T01:48:50;48.00;;;8.83;;
1416;SDS011;703;51.162;13.574;2023-01-31T01:51:24;48.50;;;9.63;;
1416;SDS011;703;51.162;13.574;2023-01-31T01:53:52;52.07;;;9.80;;
1416;SDS011;703;51.162;13.574;2023-01-31T01:56:22;53.67;;;12.50;;
1416;SDS011;703;51.162;13.574;2023-01-31T01:58:56;53.80;;;12.55;;
1416;SDS011;703;51.162;13.574;2023-01-31T02:01:28;50.63;;;10.10;;
1416;SDS011;703;51.162;13.574;2023-01-31T02:03:57;48.00;;;9.80;;
1416;SDS011;703;51.162;13.574;2023-01-31T02:06:23;50.60;;;12.07;;
1416;SDS011;703;51.162;13.574;2023-01-31T02:08:48;52.13;;;12.03;;
1416;SDS011;703;51.162;13.574;2023-01-31T02:11:17;51.73;;;11.03;;
1416;SDS011;703;51.162;13.574;2023-01-31T02:13:52;50.73;;;11.90;;
1416;SDS011;703;51.162;13.574;2023-01-31T02:16:24;51.37;;;11.57;;
1416;SDS011;703;51.162;13.574;2023-01-31T02:18:50;49.43;;;14.00;;
1416;SDS011;703;51.162;13.574;2023-01-31T02:29:53;49.80;;;11.50;;
1416;SDS011;703;51.162;13.574;2023-01-31T02:38:07;53.67;;;22.17;;
1416;SDS011;703;51.162;13.574;2023-01-31T09:01:37;123.00;;;37.70;;
1416;SDS011;703;51.162;13.574;2023-01-31T11:09:47;48.03;;;6.45;;
1416;SDS011;703;51.162;13.574;2023-01-31T11:12:19;50.37;;;11.80;;
1416;SDS011;703;51.162;13.574;2023-01-31T11:15:05;50.25;;;11.00;;
1416;SDS011;703;51.162;13.574;2023-01-31T11:17:38;44.30;;;10.27;;
1416;SDS011;703;51.162;13.574;2023-01-31T11:20:06;45.77;;;9.80;;
1416;SDS011;703;51.162;13.574;2023-01-31T11:22:45;47.00;;;12.73;;
1416;SDS011;703;51.162;13.574;2023-01-31T11:25:17;45.40;;;12.30;;
1416;SDS011;703;51.162;13.574;2023-01-31T11:27:46;46.03;;;10.10;;
1416;SDS011;703;51.162;13.574;2023-01-31T11:30:26;44.30;;;9.97;;
1416;SDS011;703;51.162;13.574;2023-01-31T11:32:53;46.30;;;12.80;;
1416;SDS011;703;51.162;13.574;2023-01-31T11:37:48;45.30;;;11.80;;
1416;SDS011;703;51.162;13.574;2023-01-31T11:40:19;44.27;;;10.60;;
1416;SDS011;703;51.162;13.574;2023-01-31T11:42:54;45.10;;;11.60;;
1416;SDS011;703;51.162;13.574;2023-01-31T11:45:29;45.33;;;10.50;;
1416;SDS011;703;51.162;13.574;2023-01-31T11:47:57;44.27;;;11.17;;
1416;SDS011;703;51.162;13.574;2023-01-31T11:50:45;48.10;;;11.83;;
1416;SDS011;703;51.162;13.574;2023-01-31T11:53:20;48.43;;;13.20;;
1416;SDS011;703;51.162;13.574;2023-01-31T11:55:49;66.33;;;20.40;;
1416;SDS011;703;51.162;13.574;2023-01-31T11:58:25;47.73;;;9.90;;
1416;SDS011;703;51.162;13.574;2023-01-31T12:03:32;45.97;;;13.30;;
1416;SDS011;703;51.162;13.574;2023-01-31T12:06:02;48.23;;;10.90;;
1416;SDS011;703;51.162;13.574;2023-01-31T12:08:39;46.70;;;10.33;;
1416;SDS011;703;51.162;13.574;2023-01-31T12:11:21;45.13;;;10.13;;
1416;SDS011;703;51.162;13.574;2023-01-31T12:14:13;46.50;;;11.47;;
1416;SDS011;703;51.162;13.574;2023-01-31T12:16:41;47.37;;;13.40;;
1416;SDS011;703;51.162;13.574;2023-01-31T12:21:48;46.10;;;10.95;;
1416;SDS011;703;51.162;13.574;2023-01-31T12:51:33;50.73;;;15.73;;
1416;SDS011;703;51.162;13.574;2023-01-31T12:56:57;51.60;;;15.27;;
1416;SDS011;703;51.162;13.574;2023-01-31T12:59:45;363.53;;;303.80;;
1416;SDS011;703;51.162;13.574;2023-01-31T13:05:09;47.17;;;12.33;;
1416;SDS011;703;51.162;13.574;2023-01-31T13:07:53;51.77;;;15.00;;
1416;SDS011;703;51.162;13.574;2023-01-31T13:10:28;50.43;;;19.70;;
1416;SDS011;703;51.162;13.574;2023-01-31T13:13:03;47.53;;;13.77;;
1416;SDS011;703;51.162;13.574;2023-01-31T13:18:12;48.70;;;11.97;;
1416;SDS011;703;51.162;13.574;2023-01-31T13:23:12;49.67;;;12.70;;
1416;SDS011;703;51.162;13.574;2023-01-31T13:25:50;55.55;;;23.98;;
1416;SDS011;703;51.162;13.574;2023-01-31T13:28:26;431.27;;;367.30;;
1416;SDS011;703;51.162;13.574;2023-01-31T13:30:55;52.00;;;11.93;;
1416;SDS011;703;51.162;13.574;2023-01-31T13:33:28;47.83;;;10.40;;
1416;SDS011;703;51.162;13.574;2023-01-31T13:36:00;46.87;;;11.90;;
1416;SDS011;703;51.162;13.574;2023-01-31T13:38:30;55.40;;;21.73;;
1416;SDS011;703;51.162;13.574;2023-01-31T13:41:01;510.53;;;323.90;;
1416;SDS011;703;51.162;13.574;2023-01-31T13:43:30;356.87;;;181.87;;
1416;SDS011;703;51.162;13.574;2023-01-31T13:46:01;51.43;;;13.60;;
1416;SDS011;703;51.162;13.574;2023-01-31T13:48:34;48.83;;;15.83;;
1416;SDS011;703;51.162;13.574;2023-01-31T13:51:14;50.57;;;12.03;;
1416;SDS011;703;51.162;13.574;2023-01-31T13:53:51;49.57;;;13.10;;
1416;SDS011;703;51.162;13.574;2023-01-31T13:56:34;46.00;;;10.70;;
1416;SDS011;703;51.162;13.574;2023-01-31T13:59:02;48.33;;;11.70;;
1416;SDS011;703;51.162;13.574;2023-01-31T14:01:33;53.17;;;12.43;;
1416;SDS011;703;51.162;13.574;2023-01-31T14:06:53;48.47;;;12.50;;
1416;SDS011;703;51.162;13.574;2023-01-31T14:09:22;44.90;;;7.60;;
1416;SDS011;703;51.162;13.574;2023-01-31T14:11:51;47.13;;;13.20;;
1416;SDS011;703;51.162;13.574;2023-01-31T14:14:19;48.70;;;17.50;;
1416;SDS011;703;51.162;13.574;2023-01-31T14:16:52;47.40;;;13.20;;
1416;SDS011;703;51.162;13.574;2023-01-31T14:21:43;49.37;;;12.13;;
1416;SDS011;703;51.162;13.574;2023-01-31T14:27:21;52.17;;;14.37;;
1416;SDS011;703;51.162;13.574;2023-01-31T14:48:41;52.47;;;14.23;;
1416;SDS011;703;51.162;13.574;2023-01-31T14:51:57;51.63;;;12.73;;
1416;SDS011;703;51.162;13.574;2023-01-31T14:57:18;51.30;;;12.97;;
1416;SDS011;703;51.162;13.574;2023-01-31T14:59:54;56.33;;;27.90;;
1416;SDS011;703;51.162;13.574;2023-01-31T15:02:59;49.03;;;14.40;;
1416;SDS011;703;51.162;13.574;2023-01-31T15:08:01;53.53;;;24.63;;
1416;SDS011;703;51.162;13.574;2023-01-31T15:13:33;48.57;;;13.10;;
1416;SDS011;703;51.162;13.574;2023-01-31T15:16:00;62.00;;;19.05;;
1416;SDS011;703;51.162;13.574;2023-01-31T15:18:28;49.73;;;16.37;;
1416;SDS011;703;51.162;13.574;2023-01-31T15:20:55;48.87;;;12.10;;
1416;SDS011;703;51.162;13.574;2023-01-31T15:23:25;40.50;;;18.20;;
1416;SDS011;703;51.162;13.574;2023-01-31T15:25:54;51.90;;;15.47;;
1416;SDS011;703;51.162;13.574;2023-01-31T15:28:26;46.27;;;11.60;;
1416;SDS011;703;51.162;13.574;2023-01-31T15:30:55;48.90;;;16.33;;
1416;SDS011;703;51.162;13.574;2023-01-31T15:33:25;49.57;;;18.63;;
1416;SDS011;703;51.162;13.574;2023-01-31T15:38:34;48.73;;;17.03;;
1416;SDS011;703;51.162;13.574;2023-01-31T15:43:40;48.63;;;13.07;;
1416;SDS011;703;51.162;13.574;2023-01-31T15:48:46;48.73;;;14.53;;
1416;SDS011;703;51.162;13.574;2023-01-31T15:51:12;47.27;;;10.97;;
1416;SDS011;703;51.162;13.574;2023-01-31T15:53:38;49.13;;;13.23;;
1416;SDS011;703;51.162;13.574;2023-01-31T15:56:05;49.60;;;10.27;;
1416;SDS011;703;51.162;13.574;2023-01-31T15:58:32;50.67;;;12.87;;
1416;SDS011;703;51.162;13.574;2023-01-31T16:01:00;48.77;;;15.07;;
1416;SDS011;703;51.162;13.574;2023-01-31T16:03:28;48.30;;;12.17;;
1416;SDS011;703;51.162;13.574;2023-01-31T16:05:57;48.03;;;12.03;;
1416;SDS011;703;51.162;13.574;2023-01-31T16:10:58;47.00;;;12.73;;
1416;SDS011;703;51.162;13.574;2023-01-31T16:13:25;48.00;;;10.83;;
1416;SDS011;703;51.162;13.574;2023-01-31T16:15:51;49.50;;;12.03;;
1416;SDS011;703;51.162;13.574;2023-01-31T16:18:18;47.50;;;11.50;;
1416;SDS011;703;51.162;13.574;2023-01-31T16:20:48;48.17;;;11.30;;
1416;SDS011;703;51.162;13.574;2023-01-31T16:25:49;678.97;;;497.27;;
1416;SDS011;703;51.162;13.574;2023-01-31T16:28:46;315.07;;;244.67;;
1416;SDS011;703;51.162;13.574;2023-01-31T16:31:17;600.47;;;471.30;;
1416;SDS011;703;51.162;13.574;2023-01-31T16:33:51;49.83;;;12.20;;
1416;SDS011;703;51.162;13.574;2023-01-31T16:39:02;48.60;;;12.20;;
1416;SDS011;703;51.162;13.574;2023-01-31T16:41:40;67.50;;;51.87;;
1416;SDS011;703;51.162;13.574;2023-01-31T16:44:10;341.87;;;249.23;;
1416;SDS011;703;51.162;13.574;2023-01-31T16:46:42;46.97;;;11.20;;
1416;SDS011;703;51.162;13.574;2023-01-31T16:49:22;46.80;;;11.13;;
1416;SDS011;703;51.162;13.574;2023-01-31T16:51:48;46.87;;;11.80;;
1416;SDS011;703;51.162;13.574;2023-01-31T16:54:16;48.10;;;12.00;;
1416;SDS011;703;51.162;13.574;2023-01-31T16:57:03;47.83;;;10.68;;
1416;SDS011;703;51.162;13.574;2023-01-31T17:02:14;47.97;;;11.30;;
1416;SDS011;703;51.162;13.574;2023-01-31T17:04:45;48.50;;;13.80;;
1416;SDS011;703;51.162;13.574;2023-01-31T17:07:20;48.37;;;11.80;;
1416;SDS011;703;51.162;13.574;2023-01-31T17:10:39;45.90;;;4.50;;
1416;SDS011;703;51.162;13.574;2023-01-31T17:15:40;50.30;;;12.40;;
1416;SDS011;703;51.162;13.574;2023-01-31T17:18:10;46.27;;;10.80;;
1416;SDS011;703;51.162;13.574;2023-01-31T17:20:36;47.67;;;11.30;;
1416;SDS011;703;51.162;13.574;2023-01-31T17:23:05;47.10;;;12.47;;
1416;SDS011;703;51.162;13.574;2023-01-31T17:25:32;48.00;;;13.20;;
1416;SDS011;703;51.162;13.574;2023-01-31T17:28:00;45.93;;;12.07;;
1416;SDS011;703;51.162;13.574;2023-01-31T17:30:26;49.57;;;18.03;;
1416;SDS011;703;51.162;13.574;2023-01-31T17:32:54;47.23;;;11.20;;
1416;SDS011;703;51.162;13.574;2023-01-31T17:35:28;46.80;;;11.00;;
1416;SDS011;703;51.162;13.574;2023-01-31T17:38:06;46.90;;;12.73;;
1416;SDS011;703;51.162;13.574;2023-01-31T17:40:31;47.37;;;13.17;;
1416;SDS011;703;51.162;13.574;2023-01-31T17:42:58;50.77;;;17.97;;
1416;SDS011;703;51.162;13.574;2023-01-31T17:45:26;48.30;;;13.03;;
1416;SDS011;703;51.162;13.574;2023-01-31T17:47:52;51.03;;;12.90;;
1416;SDS011;703;51.162;13.574;2023-01-31T17:50:22;49.10;;;7.23;;
1416;SDS011;703;51.162;13.574;2023-01-31T17:52:50;48.13;;;14.60;;
1416;SDS011;703;51.162;13.574;2023-01-31T17:55:17;45.80;;;9.33;;
1416;SDS011;703;51.162;13.574;2023-01-31T17:57:44;47.20;;;11.80;;
1416;SDS011;703;51.162;13.574;2023-01-31T18:00:11;47.63;;;12.00;;
1416;SDS011;703;51.162;13.574;2023-01-31T18:02:39;47.23;;;11.43;;
1416;SDS011;703;51.162;13.574;2023-01-31T18:05:14;47.80;;;9.97;;
1416;SDS011;703;51.162;13.574;2023-01-31T18:07:43;736.85;;;563.47;;
1416;SDS011;703;51.162;13.574;2023-01-31T18:10:08;552.07;;;217.07;;
1416;SDS011;703;51.162;13.574;2023-01-31T18:12:34;552.10;;;226.07;;
1416;SDS011;703;51.162;13.574;2023-01-31T18:15:00;538.00;;;194.73;;
1416;SDS011;703;51.162;13.574;2023-01-31T18:17:26;556.17;;;285.23;;
1416;SDS011;703;51.162;13.574;2023-01-31T18:19:52;556.00;;;303.37;;
1416;SDS011;703;51.162;13.574;2023-01-31T18:22:19;562.15;;;310.77;;
1416;SDS011;703;51.162;13.574;2023-01-31T18:24:44;538.30;;;258.33;;
1416;SDS011;703;51.162;13.574;2023-01-31T18:27:10;574.80;;;310.57;;
1416;SDS011;703;51.162;13.574;2023-01-31T18:29:36;534.67;;;275.27;;
1416;SDS011;703;51.162;13.574;2023-01-31T18:32:01;556.17;;;286.40;;
1416;SDS011;703;51.162;13.574;2023-01-31T18:34:30;537.33;;;367.63;;
1416;SDS011;703;51.162;13.574;2023-01-31T18:36:57;693.77;;;520.27;;
1416;SDS011;703;51.162;13.574;2023-01-31T18:39:23;142.87;;;104.67;;
1416;SDS011;703;51.162;13.574;2023-01-31T18:41:48;50.10;;;10.47;;
1416;SDS011;703;51.162;13.574;2023-01-31T18:44:14;482.20;;;259.43;;
1416;SDS011;703;51.162;13.574;2023-01-31T18:46:40;227.40;;;147.80;;
1416;SDS011;703;51.162;13.574;2023-01-31T18:49:05;46.30;;;10.47;;
1416;SDS011;703;51.162;13.574;2023-01-31T18:51:31;404.33;;;178.60;;
1416;SDS011;703;51.162;13.574;2023-01-31T18:53:56;537.70;;;207.87;;
1416;SDS011;703;51.162;13.574;2023-01-31T18:56:22;389.30;;;182.87;;
1416;SDS011;703;51.162;13.574;2023-01-31T18:58:48;45.53;;;9.97;;
1416;SDS011;703;51.162;13.574;2023-01-31T19:01:19;526.00;;;228.37;;
1416;SDS011;703;51.162;13.574;2023-01-31T19:03:47;411.77;;;225.37;;
1416;SDS011;703;51.162;13.574;2023-01-31T19:06:15;492.27;;;235.83;;
1416;SDS011;703;51.162;13.574;2023-01-31T19:08:42;401.50;;;182.40;;
1416;SDS011;703;51.162;13.574;2023-01-31T19:11:11;321.33;;;152.73;;
1416;SDS011;703;51.162;13.574;2023-01-31T19:13:39;141.75;;;79.22;;
1416;SDS011;703;51.162;13.574;2023-01-31T19:16:06;49.40;;;10.93;;
1416;SDS011;703;51.162;13.574;2023-01-31T19:18:38;44.37;;;10.10;;
1416;SDS011;703;51.162;13.574;2023-01-31T19:21:19;45.13;;;8.83;;
1416;SDS011;703;51.162;13.574;2023-01-31T19:23:56;44.73;;;10.13;;
1416;SDS011;703;51.162;13.574;2023-01-31T19:26:26;558.03;;;433.27;;
1416;SDS011;703;51.162;13.574;2023-01-31T19:28:54;536.63;;;277.23;;
1416;SDS011;703;51.162;13.574;2023-01-31T19:31:21;577.07;;;397.97;;
1416;SDS011;703;51.162;13.574;2023-01-31T19:33:51;402.27;;;245.90;;
1416;SDS011;703;51.162;13.574;2023-01-31T19:36:21;661.07;;;589.77;;
1416;SDS011;703;51.162;13.574;2023-01-31T19:38:49;295.03;;;221.93;;
1416;SDS011;703;51.162;13.574;2023-01-31T19:41:16;403.87;;;292.57;;
1416;SDS011;703;51.162;13.574;2023-01-31T19:43:52;280.90;;;214.63;;
1416;SDS011;703;51.162;13.574;2023-01-31T19:46:20;336.30;;;234.80;;
1416;SDS011;703;51.162;13.574;2023-01-31T19:48:46;50.33;;;11.47;;
1416;SDS011;703;51.162;13.574;2023-01-31T19:51:12;47.00;;;10.00;;
1416;SDS011;703;51.162;13.574;2023-01-31T19:53:39;48.77;;;14.70;;
1416;SDS011;703;51.162;13.574;2023-01-31T19:56:06;48.30;;;10.93;;
1416;SDS011;703;51.162;13.574;2023-01-31T19:58:32;54.23;;;20.03;;
1416;SDS011;703;51.162;13.574;2023-01-31T20:01:00;47.27;;;9.40;;
1416;SDS011;703;51.162;13.574;2023-01-31T20:03:28;780.90;;;646.93;;
1416;SDS011;703;51.162;13.574;2023-01-31T20:05:57;188.67;;;129.80;;
1416;SDS011;703;51.162;13.574;2023-01-31T20:08:35;445.63;;;376.20;;
1416;SDS011;703;51.162;13.574;2023-01-31T20:11:01;123.57;;;64.07;;
1416;SDS011;703;51.162;13.574;2023-01-31T20:13:29;47.45;;;12.63;;
1416;SDS011;703;51.162;13.574;2023-01-31T20:15:55;499.73;;;399.23;;
1416;SDS011;703;51.162;13.574;2023-01-31T20:18:22;45.87;;;12.67;;
1416;SDS011;703;51.162;13.574;2023-01-31T20:20:49;44.37;;;9.03;;
1416;SDS011;703;51.162;13.574;2023-01-31T20:23:15;44.63;;;9.70;;
1416;SDS011;703;51.162;13.574;2023-01-31T20:25:41;45.97;;;8.80;;
1416;SDS011;703;51.162;13.574;2023-01-31T20:28:11;50.90;;;10.27;;
1416;SDS011;703;51.162;13.574;2023-01-31T20:30:37;45.47;;;9.67;;
1416;SDS011;703;51.162;13.574;2023-01-31T20:33:03;44.10;;;8.13;;
1416;SDS011;703;51.162;13.574;2023-01-31T20:35:29;56.40;;;11.93;;
1416;SDS011;703;51.162;13.574;2023-01-31T20:38:00;47.47;;;9.57;;
1416;SDS011;703;51.162;13.574;2023-01-31T20:40:26;45.13;;;9.77;;
1416;SDS011;703;51.162;13.574;2023-01-31T20:42:52;45.37;;;9.97;;
1416;SDS011;703;51.162;13.574;2023-01-31T20:45:18;46.77;;;8.67;;
1416;SDS011;703;51.162;13.574;2023-01-31T20:47:44;48.10;;;9.50;;
1416;SDS011;703;51.162;13.574;2023-01-31T20:50:12;45.50;;;9.37;;
1416;SDS011;703;51.162;13.574;2023-01-31T20:52:38;44.27;;;8.17;;
1416;SDS011;703;51.162;13.574;2023-01-31T20:55:10;44.30;;;8.80;;
1416;SDS011;703;51.162;13.574;2023-01-31T20:57:38;45.60;;;10.53;;
1416;SDS011;703;51.162;13.574;2023-01-31T21:00:24;45.60;;;10.70;;
1416;SDS011;703;51.162;13.574;2023-01-31T21:02:50;45.50;;;13.23;;
1416;SDS011;703;51.162;13.574;2023-01-31T21:05:16;44.97;;;9.87;;
1416;SDS011;703;51.162;13.574;2023-01-31T21:07:42;45.33;;;11.00;;
1416;SDS011;703;51.162;13.574;2023-01-31T21:10:09;45.60;;;11.73;;
1416;SDS011;703;51.162;13.574;2023-01-31T21:12:35;44.90;;;9.87;;
1416;SDS011;703;51.162;13.574;2023-01-31T21:15:07;44.93;;;8.40;;
1416;SDS011;703;51.162;13.574;2023-01-31T21:17:33;45.47;;;11.10;;
1416;SDS011;703;51.162;13.574;2023-01-31T21:20:00;548.07;;;384.67;;
1416;SDS011;703;51.162;13.574;2023-01-31T21:22:29;63.73;;;22.57;;
1416;SDS011;703;51.162;13.574;2023-01-31T21:24:55;61.87;;;20.83;;
1416;SDS011;703;51.162;13.574;2023-01-31T21:27:23;47.30;;;9.53;;
1416;SDS011;703;51.162;13.574;2023-01-31T21:29:52;48.83;;;11.23;;
1416;SDS011;703;51.162;13.574;2023-01-31T21:32:17;59.73;;;13.50;;
1416;SDS011;703;51.162;13.574;2023-01-31T21:34:43;54.77;;;10.13;;
1416;SDS011;703;51.162;13.574;2023-01-31T21:37:09;49.17;;;11.63;;
1416;SDS011;703;51.162;13.574;2023-01-31T21:39:38;45.63;;;10.47;;
1416;SDS011;703;51.162;13.574;2023-01-31T21:42:03;426.93;;;328.30;;
1416;SDS011;703;51.162;13.574;2023-01-31T21:44:44;46.43;;;9.63;;
1416;SDS011;703;51.162;13.574;2023-01-31T21:47:14;716.63;;;590.37;;
1416;SDS011;703;51.162;13.574;2023-01-31T21:49:43;643.08;;;486.60;;
1416;SDS011;703;51.162;13.574;2023-01-31T21:52:11;730.38;;;600.63;;
1416;SDS011;703;51.162;13.574;2023-01-31T21:54:37;720.10;;;621.50;;
1416;SDS011;703;51.162;13.574;2023-01-31T21:57:02;113.30;;;44.07;;
1416;SDS011;703;51.162;13.574;2023-01-31T21:59:28;47.17;;;10.70;;
1416;SDS011;703;51.162;13.574;2023-01-31T22:01:54;798.57;;;713.47;;
1416;SDS011;703;51.162;13.574;2023-01-31T22:04:19;592.43;;;442.30;;
1416;SDS011;703;51.162;13.574;2023-01-31T22:06:47;530.03;;;412.77;;
1416;SDS011;703;51.162;13.574;2023-01-31T22:09:13;649.75;;;482.30;;
1416;SDS011;703;51.162;13.574;2023-01-31T22:11:39;703.65;;;555.35;;
1416;SDS011;703;51.162;13.574;2023-01-31T22:14:07;569.03;;;328.55;;
1416;SDS011;703;51.162;13.574;2023-01-31T22:16:34;46.80;;;10.60;;
1416;SDS011;703;51.162;13.574;2023-01-31T22:19:00;45.30;;;12.57;;
1416;SDS011;703;51.162;13.574;2023-01-31T22:21:28;45.93;;;9.60;;
1416;SDS011;703;51.162;13.574;2023-01-31T22:23:56;44.53;;;9.33;;
1416;SDS011;703;51.162;13.574;2023-01-31T22:26:24;44.80;;;9.83;;
1416;SDS011;703;51.162;13.574;2023-01-31T22:28:52;584.80;;;354.40;;
1416;SDS011;703;51.162;13.574;2023-01-31T22:31:19;538.20;;;250.27;;
1416;SDS011;703;51.162;13.574;2023-01-31T22:33:45;579.97;;;350.77;;
1416;SDS011;703;51.162;13.574;2023-01-31T22:36:11;655.47;;;335.50;;
1416;SDS011;703;51.162;13.574;2023-01-31T22:38:38;627.33;;;403.37;;
1416;SDS011;703;51.162;13.574;2023-01-31T22:41:05;513.13;;;331.40;;
1416;SDS011;703;51.162;13.574;2023-01-31T22:43:39;47.42;;;11.18;;
1416;SDS011;703;51.162;13.574;2023-01-31T22:46:06;45.25;;;13.20;;
1416;SDS011;703;51.162;13.574;2023-01-31T22:48:34;45.20;;;9.70;;
1416;SDS011;703;51.162;13.574;2023-01-31T22:51:01;46.60;;;10.80;;
1416;SDS011;703;51.162;13.574;2023-01-31T22:53:30;51.77;;;20.80;;
1416;SDS011;703;51.162;13.574;2023-01-31T22:56:05;48.97;;;13.97;;
1416;SDS011;703;51.162;13.574;2023-01-31T22:58:32;46.10;;;11.60;;
1416;SDS011;703;51.162;13.574;2023-01-31T23:00:58;48.60;;;11.60;;
1416;SDS011;703;51.162;13.574;2023-01-31T23:03:24;49.00;;;15.30;;
1416;SDS011;703;51.162;13.574;2023-01-31T23:05:50;48.57;;;17.80;;
1416;SDS011;703;51.162;13.574;2023-01-31T23:08:16;45.90;;;12.80;;
1416;SDS011;703;51.162;13.574;2023-01-31T23:10:42;49.07;;;18.10;;
1416;SDS011;703;51.162;13.574;2023-01-31T23:13:08;47.30;;;18.23;;
1416;SDS011;703;51.162;13.574;2023-01-31T23:15:34;45.27;;;9.83;;
1416;SDS011;703;51.162;13.574;2023-01-31T23:18:01;50.17;;;14.53;;
1416;SDS011;703;51.162;13.574;2023-01-31T23:20:27;47.87;;;16.87;;
1416;SDS011;703;51.162;13.574;2023-01-31T23:22:54;48.60;;;15.33;;
1416;SDS011;703;51.162;13.574;2023-01-31T23:25:22;48.73;;;11.10;;
1416;SDS011;703;51.162;13.574;2023-01-31T23:27:49;45.27;;;10.50;;
1416;SDS011;703;51.162;13.574;2023-01-31T23:30:15;46.40;;;10.83;;
1416;SDS011;703;51.162;13.574;2023-01-31T23:32:42;45.10;;;10.97;;
1416;SDS011;703;51.162;13.574;2023-01-31T23:35:08;46.50;;;12.23;;
1416;SDS011;703;51.162;13.574;2023-01-31T23:37:35;46.27;;;11.10;;
1416;SDS011;703;51.162;13.574;2023-01-31T23:40:01;47.40;;;12.20;;
1416;SDS011;703;51.162;13.574;2023-01-31T23:42:27;46.53;;;12.33;;
1416;SDS011;703;51.162;13.574;2023-01-31T23:44:53;49.65;;;17.15;;
1416;SDS011;703;51.162;13.574;2023-01-31T23:47:19;52.60;;;15.27;;
1416;SDS011;703;51.162;13.574;2023-01-31T23:49:45;46.70;;;11.77;;
1416;SDS011;703;51.162;13.574;2023-01-31T23:52:11;46.47;;;11.00;;
1416;SDS011;703;51.162;13.574;2023-01-31T23:54:37;46.30;;;9.70;;
1416;SDS011;703;51.162;13.574;2023-01-31T23:57:03;46.90;;;11.37;;
1416;SDS011;703;51.162;13.574;2023-01-31T23:59:28;46.20;;;10.80;;
